sensor_id;sensor_type;location;lat;lon;timestamp;P1;durP1;ratioP1;P2;durP2;ratioP2
23608;SDS011;11982;50.810;4.442;2023-03-23T00:01:53;10.93;;;6.60;;
23608;SDS011;11982;50.810;4.442;2023-03-23T00:04:19;10.18;;;6.25;;
23608;SDS011;11982;50.810;4.442;2023-03-23T00:06:45;9.35;;;6.47;;
23608;SDS011;11982;50.810;4.442;2023-03-23T00:09:14;10.68;;;5.95;;
23608;SDS011;11982;50.810;4.442;2023-03-23T00:11:41;9.27;;;6.07;;
23608;SDS011;11982;50.810;4.442;2023-03-23T00:14:08;8.38;;;6.03;;
23608;SDS011;11982;50.810;4.442;2023-03-23T00:16:38;12.70;;;7.00;;
23608;SDS011;11982;50.810;4.442;2023-03-23T00:19:10;10.77;;;6.55;;
23608;SDS011;11982;50.810;4.442;2023-03-23T00:21:40;8.02;;;5.93;;
23608;SDS011;11982;50.810;4.442;2023-03-23T00:24:13;7.53;;;6.10;;
23608;SDS011;11982;50.810;4.442;2023-03-23T00:26:47;9.82;;;5.63;;
23608;SDS011;11982;50.810;4.442;2023-03-23T00:29:15;8.63;;;6.22;;
23608;SDS011;11982;50.810;4.442;2023-03-23T00:31:44;10.98;;;6.03;;
23608;SDS011;11982;50.810;4.442;2023-03-23T00:34:22;8.40;;;5.82;;
23608;SDS011;11982;50.810;4.442;2023-03-23T00:36:50;8.98;;;5.90;;
23608;SDS011;11982;50.810;4.442;2023-03-23T00:39:21;9.82;;;5.75;;
23608;SDS011;11982;50.810;4.442;2023-03-23T00:41:51;9.00;;;6.07;;
23608;SDS011;11982;50.810;4.442;2023-03-23T00:44:19;11.68;;;6.50;;
23608;SDS011;11982;50.810;4.442;2023-03-23T00:46:48;8.95;;;5.43;;
23608;SDS011;11982;50.810;4.442;2023-03-23T00:49:20;10.55;;;6.25;;
23608;SDS011;11982;50.810;4.442;2023-03-23T00:51:50;7.47;;;5.68;;
23608;SDS011;11982;50.810;4.442;2023-03-23T00:54:17;10.00;;;5.65;;
23608;SDS011;11982;50.810;4.442;2023-03-23T00:56:43;10.45;;;6.05;;
23608;SDS011;11982;50.810;4.442;2023-03-23T00:59:09;10.18;;;6.32;;
23608;SDS011;11982;50.810;4.442;2023-03-23T01:01:35;9.10;;;6.18;;
23608;SDS011;11982;50.810;4.442;2023-03-23T01:04:01;10.35;;;5.97;;
23608;SDS011;11982;50.810;4.442;2023-03-23T01:06:29;8.27;;;5.18;;
23608;SDS011;11982;50.810;4.442;2023-03-23T01:09:06;9.38;;;6.07;;
23608;SDS011;11982;50.810;4.442;2023-03-23T01:11:33;10.02;;;6.13;;
23608;SDS011;11982;50.810;4.442;2023-03-23T01:13:59;12.32;;;5.97;;
23608;SDS011;11982;50.810;4.442;2023-03-23T01:16:26;11.80;;;6.63;;
23608;SDS011;11982;50.810;4.442;2023-03-23T01:18:52;8.70;;;6.25;;
23608;SDS011;11982;50.810;4.442;2023-03-23T01:21:18;9.82;;;6.03;;
23608;SDS011;11982;50.810;4.442;2023-03-23T01:23:45;8.05;;;6.13;;
23608;SDS011;11982;50.810;4.442;2023-03-23T01:26:12;7.20;;;5.75;;
23608;SDS011;11982;50.810;4.442;2023-03-23T01:28:40;8.35;;;5.95;;
23608;SDS011;11982;50.810;4.442;2023-03-23T01:31:09;9.15;;;5.85;;
23608;SDS011;11982;50.810;4.442;2023-03-23T01:33:38;7.40;;;5.85;;
23608;SDS011;11982;50.810;4.442;2023-03-23T01:36:05;10.52;;;5.93;;
23608;SDS011;11982;50.810;4.442;2023-03-23T01:38:33;9.13;;;5.60;;
23608;SDS011;11982;50.810;4.442;2023-03-23T01:41:00;10.93;;;5.57;;
23608;SDS011;11982;50.810;4.442;2023-03-23T01:43:26;9.88;;;6.10;;
23608;SDS011;11982;50.810;4.442;2023-03-23T01:45:51;8.00;;;5.57;;
23608;SDS011;11982;50.810;4.442;2023-03-23T01:50:57;9.30;;;5.38;;
23608;SDS011;11982;50.810;4.442;2023-03-23T01:53:28;10.60;;;5.72;;
23608;SDS011;11982;50.810;4.442;2023-03-23T01:55:58;11.10;;;5.18;;
23608;SDS011;11982;50.810;4.442;2023-03-23T01:58:27;9.15;;;5.35;;
23608;SDS011;11982;50.810;4.442;2023-03-23T02:00:56;9.75;;;5.30;;
23608;SDS011;11982;50.810;4.442;2023-03-23T02:03:25;9.50;;;6.10;;
23608;SDS011;11982;50.810;4.442;2023-03-23T02:05:52;12.43;;;6.40;;
23608;SDS011;11982;50.810;4.442;2023-03-23T02:08:19;7.80;;;5.63;;
23608;SDS011;11982;50.810;4.442;2023-03-23T02:10:46;8.23;;;5.85;;
23608;SDS011;11982;50.810;4.442;2023-03-23T02:13:12;7.80;;;5.00;;
23608;SDS011;11982;50.810;4.442;2023-03-23T02:24:25;10.10;;;4.53;;
23608;SDS011;11982;50.810;4.442;2023-03-23T02:29:47;9.50;;;3.90;;
23608;SDS011;11982;50.810;4.442;2023-03-23T02:38:14;8.90;;;3.45;;
23608;SDS011;11982;50.810;4.442;2023-03-23T02:40:44;9.77;;;3.65;;
23608;SDS011;11982;50.810;4.442;2023-03-23T02:43:13;4.38;;;2.83;;
23608;SDS011;11982;50.810;4.442;2023-03-23T02:45:42;5.90;;;2.67;;
23608;SDS011;11982;50.810;4.442;2023-03-23T02:48:13;10.20;;;3.15;;
23608;SDS011;11982;50.810;4.442;2023-03-23T02:50:43;6.45;;;3.00;;
23608;SDS011;11982;50.810;4.442;2023-03-23T02:53:13;8.18;;;3.00;;
23608;SDS011;11982;50.810;4.442;2023-03-23T02:55:42;11.43;;;2.90;;
23608;SDS011;11982;50.810;4.442;2023-03-23T02:58:09;8.35;;;3.40;;
23608;SDS011;11982;50.810;4.442;2023-03-23T03:00:36;5.95;;;2.90;;
23608;SDS011;11982;50.810;4.442;2023-03-23T03:03:03;8.05;;;2.72;;
23608;SDS011;11982;50.810;4.442;2023-03-23T03:05:36;7.30;;;2.90;;
23608;SDS011;11982;50.810;4.442;2023-03-23T03:08:15;14.35;;;2.88;;
23608;SDS011;11982;50.810;4.442;2023-03-23T03:11:09;7.30;;;2.80;;
23608;SDS011;11982;50.810;4.442;2023-03-23T03:13:48;9.05;;;2.33;;
23608;SDS011;11982;50.810;4.442;2023-03-23T03:21:38;7.68;;;2.42;;
23608;SDS011;11982;50.810;4.442;2023-03-23T03:24:08;5.95;;;2.08;;
23608;SDS011;11982;50.810;4.442;2023-03-23T03:26:41;7.65;;;2.13;;
23608;SDS011;11982;50.810;4.442;2023-03-23T03:29:16;6.00;;;2.20;;
23608;SDS011;11982;50.810;4.442;2023-03-23T03:31:43;5.82;;;2.70;;
23608;SDS011;11982;50.810;4.442;2023-03-23T03:34:11;7.05;;;2.75;;
23608;SDS011;11982;50.810;4.442;2023-03-23T03:36:43;7.32;;;2.60;;
23608;SDS011;11982;50.810;4.442;2023-03-23T03:39:10;7.78;;;2.45;;
23608;SDS011;11982;50.810;4.442;2023-03-23T03:41:40;4.90;;;2.55;;
23608;SDS011;11982;50.810;4.442;2023-03-23T03:44:06;7.68;;;2.92;;
23608;SDS011;11982;50.810;4.442;2023-03-23T03:46:33;7.05;;;3.33;;
23608;SDS011;11982;50.810;4.442;2023-03-23T03:49:03;6.85;;;3.17;;
23608;SDS011;11982;50.810;4.442;2023-03-23T03:51:31;7.15;;;3.40;;
23608;SDS011;11982;50.810;4.442;2023-03-23T03:53:58;5.25;;;3.38;;
23608;SDS011;11982;50.810;4.442;2023-03-23T03:56:24;7.80;;;3.40;;
23608;SDS011;11982;50.810;4.442;2023-03-23T03:58:51;8.80;;;3.67;;
23608;SDS011;11982;50.810;4.442;2023-03-23T04:01:18;8.35;;;3.20;;
23608;SDS011;11982;50.810;4.442;2023-03-23T04:03:47;9.13;;;3.83;;
23608;SDS011;11982;50.810;4.442;2023-03-23T04:06:13;4.85;;;2.83;;
23608;SDS011;11982;50.810;4.442;2023-03-23T04:08:39;10.38;;;2.95;;
23608;SDS011;11982;50.810;4.442;2023-03-23T04:11:06;7.03;;;2.67;;
23608;SDS011;11982;50.810;4.442;2023-03-23T04:13:33;7.22;;;2.88;;
23608;SDS011;11982;50.810;4.442;2023-03-23T04:15:58;11.18;;;2.80;;
23608;SDS011;11982;50.810;4.442;2023-03-23T04:18:25;11.25;;;2.60;;
23608;SDS011;11982;50.810;4.442;2023-03-23T04:20:51;13.23;;;2.95;;
23608;SDS011;11982;50.810;4.442;2023-03-23T04:23:17;11.43;;;2.55;;
23608;SDS011;11982;50.810;4.442;2023-03-23T04:25:48;17.08;;;2.78;;
23608;SDS011;11982;50.810;4.442;2023-03-23T04:28:15;9.32;;;2.58;;
23608;SDS011;11982;50.810;4.442;2023-03-23T04:30:48;9.18;;;2.08;;
23608;SDS011;11982;50.810;4.442;2023-03-23T04:33:18;10.48;;;2.25;;
23608;SDS011;11982;50.810;4.442;2023-03-23T04:35:45;10.85;;;2.92;;
23608;SDS011;11982;50.810;4.442;2023-03-23T04:38:13;12.52;;;2.45;;
23608;SDS011;11982;50.810;4.442;2023-03-23T04:40:41;14.85;;;2.60;;
23608;SDS011;11982;50.810;4.442;2023-03-23T04:43:08;8.35;;;2.72;;
23608;SDS011;11982;50.810;4.442;2023-03-23T04:45:36;11.38;;;2.83;;
23608;SDS011;11982;50.810;4.442;2023-03-23T04:48:03;13.75;;;3.55;;
23608;SDS011;11982;50.810;4.442;2023-03-23T04:50:30;10.00;;;2.38;;
23608;SDS011;11982;50.810;4.442;2023-03-23T04:52:58;8.80;;;2.97;;
23608;SDS011;11982;50.810;4.442;2023-03-23T04:55:29;11.68;;;2.65;;
23608;SDS011;11982;50.810;4.442;2023-03-23T04:58:02;6.75;;;2.30;;
23608;SDS011;11982;50.810;4.442;2023-03-23T05:00:28;5.93;;;1.98;;
23608;SDS011;11982;50.810;4.442;2023-03-23T05:02:54;10.40;;;1.90;;
23608;SDS011;11982;50.810;4.442;2023-03-23T05:05:21;8.02;;;2.28;;
23608;SDS011;11982;50.810;4.442;2023-03-23T05:07:48;11.27;;;2.38;;
23608;SDS011;11982;50.810;4.442;2023-03-23T05:10:14;6.38;;;2.17;;
23608;SDS011;11982;50.810;4.442;2023-03-23T05:12:40;5.53;;;2.67;;
23608;SDS011;11982;50.810;4.442;2023-03-23T05:15:09;7.03;;;2.10;;
23608;SDS011;11982;50.810;4.442;2023-03-23T05:17:36;4.50;;;1.80;;
23608;SDS011;11982;50.810;4.442;2023-03-23T05:20:03;9.68;;;2.30;;
23608;SDS011;11982;50.810;4.442;2023-03-23T05:22:33;7.25;;;2.10;;
23608;SDS011;11982;50.810;4.442;2023-03-23T05:24:59;7.40;;;1.92;;
23608;SDS011;11982;50.810;4.442;2023-03-23T05:27:27;7.95;;;2.10;;
23608;SDS011;11982;50.810;4.442;2023-03-23T05:29:55;6.90;;;2.33;;
23608;SDS011;11982;50.810;4.442;2023-03-23T05:32:23;9.98;;;2.30;;
23608;SDS011;11982;50.810;4.442;2023-03-23T05:34:57;9.13;;;1.92;;
23608;SDS011;11982;50.810;4.442;2023-03-23T05:37:24;8.10;;;2.30;;
23608;SDS011;11982;50.810;4.442;2023-03-23T05:39:51;8.35;;;2.40;;
23608;SDS011;11982;50.810;4.442;2023-03-23T05:42:21;6.53;;;2.13;;
23608;SDS011;11982;50.810;4.442;2023-03-23T05:44:47;7.85;;;2.50;;
23608;SDS011;11982;50.810;4.442;2023-03-23T05:47:13;8.88;;;2.78;;
23608;SDS011;11982;50.810;4.442;2023-03-23T05:49:39;6.95;;;2.00;;
23608;SDS011;11982;50.810;4.442;2023-03-23T05:52:05;7.32;;;2.40;;
23608;SDS011;11982;50.810;4.442;2023-03-23T05:54:31;10.13;;;2.65;;
23608;SDS011;11982;50.810;4.442;2023-03-23T05:56:56;8.88;;;2.55;;
23608;SDS011;11982;50.810;4.442;2023-03-23T05:59:22;7.10;;;2.28;;
23608;SDS011;11982;50.810;4.442;2023-03-23T06:01:48;9.15;;;2.60;;
23608;SDS011;11982;50.810;4.442;2023-03-23T06:04:15;11.98;;;2.47;;
23608;SDS011;11982;50.810;4.442;2023-03-23T06:06:42;10.48;;;2.58;;
23608;SDS011;11982;50.810;4.442;2023-03-23T06:09:08;8.60;;;2.70;;
23608;SDS011;11982;50.810;4.442;2023-03-23T06:11:34;8.32;;;2.90;;
23608;SDS011;11982;50.810;4.442;2023-03-23T06:14:00;8.50;;;2.75;;
23608;SDS011;11982;50.810;4.442;2023-03-23T06:16:26;8.43;;;3.30;;
23608;SDS011;11982;50.810;4.442;2023-03-23T06:18:52;6.78;;;3.03;;
23608;SDS011;11982;50.810;4.442;2023-03-23T06:21:18;12.10;;;3.50;;
23608;SDS011;11982;50.810;4.442;2023-03-23T06:23:44;13.80;;;2.83;;
23608;SDS011;11982;50.810;4.442;2023-03-23T06:26:11;7.20;;;2.72;;
23608;SDS011;11982;50.810;4.442;2023-03-23T06:28:41;17.13;;;3.45;;
23608;SDS011;11982;50.810;4.442;2023-03-23T06:31:07;12.13;;;3.05;;
23608;SDS011;11982;50.810;4.442;2023-03-23T06:33:33;12.05;;;3.10;;
23608;SDS011;11982;50.810;4.442;2023-03-23T06:36:00;6.85;;;3.05;;
23608;SDS011;11982;50.810;4.442;2023-03-23T06:38:26;11.18;;;3.22;;
23608;SDS011;11982;50.810;4.442;2023-03-23T06:40:53;10.63;;;3.28;;
23608;SDS011;11982;50.810;4.442;2023-03-23T06:43:19;9.32;;;3.53;;
23608;SDS011;11982;50.810;4.442;2023-03-23T06:45:45;8.23;;;2.88;;
23608;SDS011;11982;50.810;4.442;2023-03-23T06:48:10;12.50;;;3.45;;
23608;SDS011;11982;50.810;4.442;2023-03-23T06:50:37;10.82;;;3.00;;
23608;SDS011;11982;50.810;4.442;2023-03-23T06:53:03;9.80;;;3.03;;
23608;SDS011;11982;50.810;4.442;2023-03-23T06:55:28;11.20;;;3.25;;
23608;SDS011;11982;50.810;4.442;2023-03-23T06:57:54;9.32;;;3.17;;
23608;SDS011;11982;50.810;4.442;2023-03-23T07:00:20;9.20;;;2.70;;
23608;SDS011;11982;50.810;4.442;2023-03-23T07:02:46;9.48;;;2.97;;
23608;SDS011;11982;50.810;4.442;2023-03-23T07:05:11;7.95;;;2.97;;
23608;SDS011;11982;50.810;4.442;2023-03-23T07:07:38;11.10;;;2.60;;
23608;SDS011;11982;50.810;4.442;2023-03-23T07:10:05;13.10;;;3.85;;
23608;SDS011;11982;50.810;4.442;2023-03-23T07:12:36;6.18;;;2.72;;
23608;SDS011;11982;50.810;4.442;2023-03-23T07:15:02;13.07;;;3.05;;
23608;SDS011;11982;50.810;4.442;2023-03-23T07:17:28;11.35;;;3.13;;
23608;SDS011;11982;50.810;4.442;2023-03-23T07:19:54;11.70;;;3.17;;
23608;SDS011;11982;50.810;4.442;2023-03-23T07:22:20;10.20;;;3.15;;
23608;SDS011;11982;50.810;4.442;2023-03-23T07:24:46;9.13;;;3.25;;
23608;SDS011;11982;50.810;4.442;2023-03-23T07:27:11;8.82;;;2.75;;
23608;SDS011;11982;50.810;4.442;2023-03-23T07:29:38;8.48;;;3.50;;
23608;SDS011;11982;50.810;4.442;2023-03-23T07:32:05;5.35;;;1.73;;
23608;SDS011;11982;50.810;4.442;2023-03-23T07:34:32;4.70;;;1.50;;
23608;SDS011;11982;50.810;4.442;2023-03-23T07:36:58;6.38;;;1.50;;
23608;SDS011;11982;50.810;4.442;2023-03-23T07:39:24;9.77;;;2.00;;
23608;SDS011;11982;50.810;4.442;2023-03-23T07:41:51;4.78;;;2.28;;
23608;SDS011;11982;50.810;4.442;2023-03-23T07:44:16;8.00;;;2.50;;
23608;SDS011;11982;50.810;4.442;2023-03-23T07:46:42;6.55;;;2.85;;
23608;SDS011;11982;50.810;4.442;2023-03-23T07:49:08;10.02;;;3.40;;
23608;SDS011;11982;50.810;4.442;2023-03-23T07:51:34;11.38;;;3.38;;
23608;SDS011;11982;50.810;4.442;2023-03-23T07:54:00;9.60;;;2.80;;
23608;SDS011;11982;50.810;4.442;2023-03-23T07:56:28;9.98;;;3.00;;
23608;SDS011;11982;50.810;4.442;2023-03-23T07:58:54;10.23;;;2.70;;
23608;SDS011;11982;50.810;4.442;2023-03-23T08:01:20;9.65;;;2.17;;
23608;SDS011;11982;50.810;4.442;2023-03-23T08:03:46;9.18;;;2.85;;
23608;SDS011;11982;50.810;4.442;2023-03-23T08:06:12;7.95;;;2.33;;
23608;SDS011;11982;50.810;4.442;2023-03-23T08:08:37;9.07;;;2.00;;
23608;SDS011;11982;50.810;4.442;2023-03-23T08:11:05;10.68;;;1.70;;
23608;SDS011;11982;50.810;4.442;2023-03-23T08:13:31;11.00;;;2.20;;
23608;SDS011;11982;50.810;4.442;2023-03-23T08:15:58;5.65;;;1.55;;
23608;SDS011;11982;50.810;4.442;2023-03-23T08:18:25;3.17;;;0.85;;
23608;SDS011;11982;50.810;4.442;2023-03-23T08:20:51;3.75;;;1.40;;
23608;SDS011;11982;50.810;4.442;2023-03-23T08:23:18;7.15;;;1.67;;
23608;SDS011;11982;50.810;4.442;2023-03-23T08:25:43;4.55;;;1.50;;
23608;SDS011;11982;50.810;4.442;2023-03-23T08:28:09;4.97;;;1.48;;
23608;SDS011;11982;50.810;4.442;2023-03-23T08:30:34;7.22;;;1.58;;
23608;SDS011;11982;50.810;4.442;2023-03-23T08:33:02;8.20;;;1.40;;
23608;SDS011;11982;50.810;4.442;2023-03-23T08:35:30;5.90;;;1.50;;
23608;SDS011;11982;50.810;4.442;2023-03-23T08:37:55;4.80;;;1.10;;
23608;SDS011;11982;50.810;4.442;2023-03-23T08:40:22;4.78;;;1.27;;
23608;SDS011;11982;50.810;4.442;2023-03-23T08:42:49;6.88;;;1.85;;
23608;SDS011;11982;50.810;4.442;2023-03-23T08:45:18;4.78;;;1.88;;
23608;SDS011;11982;50.810;4.442;2023-03-23T08:47:46;8.30;;;1.38;;
23608;SDS011;11982;50.810;4.442;2023-03-23T08:50:17;4.32;;;1.52;;
23608;SDS011;11982;50.810;4.442;2023-03-23T08:52:45;5.95;;;1.45;;
23608;SDS011;11982;50.810;4.442;2023-03-23T08:55:11;3.92;;;1.60;;
23608;SDS011;11982;50.810;4.442;2023-03-23T08:57:37;6.85;;;1.98;;
23608;SDS011;11982;50.810;4.442;2023-03-23T09:00:04;5.38;;;1.63;;
23608;SDS011;11982;50.810;4.442;2023-03-23T09:02:52;8.82;;;1.85;;
23608;SDS011;11982;50.810;4.442;2023-03-23T09:05:19;6.15;;;1.67;;
23608;SDS011;11982;50.810;4.442;2023-03-23T09:07:50;3.72;;;1.60;;
23608;SDS011;11982;50.810;4.442;2023-03-23T09:10:17;6.82;;;1.58;;
23608;SDS011;11982;50.810;4.442;2023-03-23T09:12:44;6.32;;;2.47;;
23608;SDS011;11982;50.810;4.442;2023-03-23T09:15:11;6.38;;;1.67;;
23608;SDS011;11982;50.810;4.442;2023-03-23T09:17:40;4.30;;;1.63;;
23608;SDS011;11982;50.810;4.442;2023-03-23T09:20:08;6.43;;;2.10;;
23608;SDS011;11982;50.810;4.442;2023-03-23T09:22:39;8.63;;;2.38;;
23608;SDS011;11982;50.810;4.442;2023-03-23T09:25:06;4.85;;;1.83;;
23608;SDS011;11982;50.810;4.442;2023-03-23T09:27:33;3.33;;;1.40;;
23608;SDS011;11982;50.810;4.442;2023-03-23T09:30:02;4.72;;;1.90;;
23608;SDS011;11982;50.810;4.442;2023-03-23T09:32:31;6.13;;;1.80;;
23608;SDS011;11982;50.810;4.442;2023-03-23T09:35:01;3.85;;;1.50;;
23608;SDS011;11982;50.810;4.442;2023-03-23T09:37:28;8.35;;;2.50;;
23608;SDS011;11982;50.810;4.442;2023-03-23T09:39:54;3.60;;;1.85;;
23608;SDS011;11982;50.810;4.442;2023-03-23T09:50:45;6.28;;;1.90;;
23608;SDS011;11982;50.810;4.442;2023-03-23T09:55:48;7.22;;;3.08;;
23608;SDS011;11982;50.810;4.442;2023-03-23T10:00:54;5.63;;;2.35;;
23608;SDS011;11982;50.810;4.442;2023-03-23T10:03:29;3.67;;;2.60;;
23608;SDS011;11982;50.810;4.442;2023-03-23T10:05:58;4.70;;;2.65;;
23608;SDS011;11982;50.810;4.442;2023-03-23T10:08:25;6.43;;;2.95;;
23608;SDS011;11982;50.810;4.442;2023-03-23T10:11:03;5.90;;;2.42;;
23608;SDS011;11982;50.810;4.442;2023-03-23T10:16:22;6.30;;;2.33;;
23608;SDS011;11982;50.810;4.442;2023-03-23T10:21:29;5.55;;;2.40;;
23608;SDS011;11982;50.810;4.442;2023-03-23T10:24:00;6.35;;;2.33;;
23608;SDS011;11982;50.810;4.442;2023-03-23T10:26:40;8.88;;;2.45;;
23608;SDS011;11982;50.810;4.442;2023-03-23T10:29:34;10.30;;;2.60;;
23608;SDS011;11982;50.810;4.442;2023-03-23T10:32:16;8.02;;;2.72;;
23608;SDS011;11982;50.810;4.442;2023-03-23T10:34:50;7.18;;;2.35;;
23608;SDS011;11982;50.810;4.442;2023-03-23T10:37:21;7.30;;;2.63;;
23608;SDS011;11982;50.810;4.442;2023-03-23T10:45:00;8.02;;;2.75;;
23608;SDS011;11982;50.810;4.442;2023-03-23T10:50:41;9.27;;;2.58;;
23608;SDS011;11982;50.810;4.442;2023-03-23T10:53:16;7.72;;;2.78;;
23608;SDS011;11982;50.810;4.442;2023-03-23T10:55:45;7.07;;;2.35;;
23608;SDS011;11982;50.810;4.442;2023-03-23T10:58:21;8.68;;;2.80;;
23608;SDS011;11982;50.810;4.442;2023-03-23T11:00:49;10.50;;;3.60;;
23608;SDS011;11982;50.810;4.442;2023-03-23T11:08:13;9.10;;;3.10;;
23608;SDS011;11982;50.810;4.442;2023-03-23T11:10:46;9.35;;;3.25;;
23608;SDS011;11982;50.810;4.442;2023-03-23T11:13:16;7.15;;;2.83;;
23608;SDS011;11982;50.810;4.442;2023-03-23T11:15:43;7.28;;;3.38;;
23608;SDS011;11982;50.810;4.442;2023-03-23T11:20:49;8.90;;;3.72;;
23608;SDS011;11982;50.810;4.442;2023-03-23T11:23:22;10.90;;;3.80;;
23608;SDS011;11982;50.810;4.442;2023-03-23T11:28:46;12.30;;;3.30;;
23608;SDS011;11982;50.810;4.442;2023-03-23T11:31:32;11.05;;;3.05;;
23608;SDS011;11982;50.810;4.442;2023-03-23T11:34:03;7.85;;;2.40;;
23608;SDS011;11982;50.810;4.442;2023-03-23T11:36:36;14.20;;;2.83;;
23608;SDS011;11982;50.810;4.442;2023-03-23T11:39:19;8.27;;;2.42;;
23608;SDS011;11982;50.810;4.442;2023-03-23T11:41:50;11.02;;;3.40;;
23608;SDS011;11982;50.810;4.442;2023-03-23T11:44:16;10.07;;;2.83;;
23608;SDS011;11982;50.810;4.442;2023-03-23T11:49:15;10.95;;;2.20;;
23608;SDS011;11982;50.810;4.442;2023-03-23T11:52:05;6.97;;;2.38;;
23608;SDS011;11982;50.810;4.442;2023-03-23T11:54:39;8.52;;;2.63;;
23608;SDS011;11982;50.810;4.442;2023-03-23T11:57:10;10.82;;;2.88;;
23608;SDS011;11982;50.810;4.442;2023-03-23T11:59:37;9.35;;;2.10;;
23608;SDS011;11982;50.810;4.442;2023-03-23T12:17:34;6.32;;;2.13;;
23608;SDS011;11982;50.810;4.442;2023-03-23T12:33:54;11.32;;;2.67;;
23608;SDS011;11982;50.810;4.442;2023-03-23T12:44:31;9.93;;;2.67;;
23608;SDS011;11982;50.810;4.442;2023-03-23T12:49:49;6.25;;;2.42;;
23608;SDS011;11982;50.810;4.442;2023-03-23T12:52:26;9.73;;;2.78;;
23608;SDS011;11982;50.810;4.442;2023-03-23T12:55:04;17.65;;;3.17;;
23608;SDS011;11982;50.810;4.442;2023-03-23T12:57:45;7.28;;;2.65;;
23608;SDS011;11982;50.810;4.442;2023-03-23T13:03:50;15.88;;;4.53;;
23608;SDS011;11982;50.810;4.442;2023-03-23T13:06:44;10.43;;;3.72;;
23608;SDS011;11982;50.810;4.442;2023-03-23T13:11:53;8.07;;;3.20;;
23608;SDS011;11982;50.810;4.442;2023-03-23T13:14:26;12.02;;;3.70;;
23608;SDS011;11982;50.810;4.442;2023-03-23T13:25:47;14.88;;;2.95;;
23608;SDS011;11982;50.810;4.442;2023-03-23T13:28:29;13.88;;;3.38;;
23608;SDS011;11982;50.810;4.442;2023-03-23T13:31:13;12.43;;;3.00;;
23608;SDS011;11982;50.810;4.442;2023-03-23T13:36:40;12.00;;;2.85;;
23608;SDS011;11982;50.810;4.442;2023-03-23T13:39:22;9.90;;;2.90;;
23608;SDS011;11982;50.810;4.442;2023-03-23T13:44:54;9.63;;;2.90;;
23608;SDS011;11982;50.810;4.442;2023-03-23T13:47:35;10.48;;;3.10;;
23608;SDS011;11982;50.810;4.442;2023-03-23T13:52:46;9.35;;;2.55;;
23608;SDS011;11982;50.810;4.442;2023-03-23T14:03:41;11.45;;;3.22;;
23608;SDS011;11982;50.810;4.442;2023-03-23T14:16:21;17.38;;;3.25;;
23608;SDS011;11982;50.810;4.442;2023-03-23T14:21:49;14.38;;;3.90;;
23608;SDS011;11982;50.810;4.442;2023-03-23T14:24:20;19.25;;;4.45;;
23608;SDS011;11982;50.810;4.442;2023-03-23T14:26:52;18.35;;;3.75;;
23608;SDS011;11982;50.810;4.442;2023-03-23T14:29:26;13.63;;;3.10;;
23608;SDS011;11982;50.810;4.442;2023-03-23T14:31:56;16.48;;;3.55;;
23608;SDS011;11982;50.810;4.442;2023-03-23T14:34:24;16.38;;;4.10;;
23608;SDS011;11982;50.810;4.442;2023-03-23T14:36:55;13.68;;;3.20;;
23608;SDS011;11982;50.810;4.442;2023-03-23T14:39:25;15.57;;;3.45;;
23608;SDS011;11982;50.810;4.442;2023-03-23T14:42:12;16.40;;;4.95;;
23608;SDS011;11982;50.810;4.442;2023-03-23T14:44:41;14.13;;;3.80;;
23608;SDS011;11982;50.810;4.442;2023-03-23T14:47:19;17.40;;;3.42;;
23608;SDS011;11982;50.810;4.442;2023-03-23T14:49:47;11.88;;;2.67;;
23608;SDS011;11982;50.810;4.442;2023-03-23T14:52:18;16.00;;;3.50;;
23608;SDS011;11982;50.810;4.442;2023-03-23T14:54:48;11.25;;;3.08;;
23608;SDS011;11982;50.810;4.442;2023-03-23T14:59:45;11.52;;;3.00;;
23608;SDS011;11982;50.810;4.442;2023-03-23T15:02:17;17.10;;;3.17;;
23608;SDS011;11982;50.810;4.442;2023-03-23T15:04:44;14.88;;;3.30;;
23608;SDS011;11982;50.810;4.442;2023-03-23T15:07:13;13.02;;;3.05;;
23608;SDS011;11982;50.810;4.442;2023-03-23T15:09:42;13.02;;;2.70;;
23608;SDS011;11982;50.810;4.442;2023-03-23T15:12:20;13.85;;;2.83;;
23608;SDS011;11982;50.810;4.442;2023-03-23T15:14:51;12.85;;;3.15;;
23608;SDS011;11982;50.810;4.442;2023-03-23T15:17:22;11.95;;;3.05;;
23608;SDS011;11982;50.810;4.442;2023-03-23T15:19:50;13.85;;;2.80;;
23608;SDS011;11982;50.810;4.442;2023-03-23T15:25:10;11.90;;;3.20;;
23608;SDS011;11982;50.810;4.442;2023-03-23T15:27:44;11.10;;;3.20;;
23608;SDS011;11982;50.810;4.442;2023-03-23T15:30:37;17.27;;;3.72;;
23608;SDS011;11982;50.810;4.442;2023-03-23T15:33:16;12.65;;;3.28;;
23608;SDS011;11982;50.810;4.442;2023-03-23T15:35:49;11.68;;;3.40;;
23608;SDS011;11982;50.810;4.442;2023-03-23T15:38:23;12.45;;;3.60;;
23608;SDS011;11982;50.810;4.442;2023-03-23T15:40:57;13.38;;;4.55;;
23608;SDS011;11982;50.810;4.442;2023-03-23T15:43:31;13.10;;;3.88;;
23608;SDS011;11982;50.810;4.442;2023-03-23T15:48:50;21.27;;;4.10;;
23608;SDS011;11982;50.810;4.442;2023-03-23T15:51:29;14.77;;;4.25;;
23608;SDS011;11982;50.810;4.442;2023-03-23T15:53:56;15.35;;;3.80;;
23608;SDS011;11982;50.810;4.442;2023-03-23T15:56:22;17.42;;;4.03;;
23608;SDS011;11982;50.810;4.442;2023-03-23T15:58:49;19.05;;;4.63;;
23608;SDS011;11982;50.810;4.442;2023-03-23T16:03:46;16.55;;;3.70;;
23608;SDS011;11982;50.810;4.442;2023-03-23T16:06:15;13.18;;;3.90;;
23608;SDS011;11982;50.810;4.442;2023-03-23T16:08:42;14.55;;;4.18;;
23608;SDS011;11982;50.810;4.442;2023-03-23T16:11:09;12.70;;;4.18;;
23608;SDS011;11982;50.810;4.442;2023-03-23T16:13:36;14.55;;;4.07;;
23608;SDS011;11982;50.810;4.442;2023-03-23T16:16:02;16.00;;;4.30;;
23608;SDS011;11982;50.810;4.442;2023-03-23T16:18:29;12.98;;;3.85;;
23608;SDS011;11982;50.810;4.442;2023-03-23T16:20:55;10.88;;;3.65;;
23608;SDS011;11982;50.810;4.442;2023-03-23T16:23:21;11.35;;;3.42;;
23608;SDS011;11982;50.810;4.442;2023-03-23T16:25:47;13.57;;;3.47;;
23608;SDS011;11982;50.810;4.442;2023-03-23T16:28:13;11.98;;;3.67;;
23608;SDS011;11982;50.810;4.442;2023-03-23T16:30:40;13.48;;;3.22;;
23608;SDS011;11982;50.810;4.442;2023-03-23T16:33:07;12.68;;;3.95;;
23608;SDS011;11982;50.810;4.442;2023-03-23T16:35:33;10.57;;;3.28;;
23608;SDS011;11982;50.810;4.442;2023-03-23T16:38:00;13.32;;;3.88;;
23608;SDS011;11982;50.810;4.442;2023-03-23T16:40:26;15.27;;;4.43;;
23608;SDS011;11982;50.810;4.442;2023-03-23T16:42:52;14.82;;;4.15;;
23608;SDS011;11982;50.810;4.442;2023-03-23T16:45:19;19.20;;;3.85;;
23608;SDS011;11982;50.810;4.442;2023-03-23T16:47:45;12.27;;;3.70;;
23608;SDS011;11982;50.810;4.442;2023-03-23T16:50:12;16.98;;;3.67;;
23608;SDS011;11982;50.810;4.442;2023-03-23T16:52:40;11.82;;;3.10;;
23608;SDS011;11982;50.810;4.442;2023-03-23T16:55:08;13.63;;;3.35;;
23608;SDS011;11982;50.810;4.442;2023-03-23T16:57:35;14.32;;;3.10;;
23608;SDS011;11982;50.810;4.442;2023-03-23T17:00:36;13.32;;;3.33;;
23608;SDS011;11982;50.810;4.442;2023-03-23T17:02:54;15.43;;;3.92;;
23608;SDS011;11982;50.810;4.442;2023-03-23T17:05:25;14.55;;;4.07;;
23608;SDS011;11982;50.810;4.442;2023-03-23T17:07:52;15.90;;;3.67;;
23608;SDS011;11982;50.810;4.442;2023-03-23T17:10:19;13.68;;;3.92;;
23608;SDS011;11982;50.810;4.442;2023-03-23T17:12:46;12.95;;;3.70;;
23608;SDS011;11982;50.810;4.442;2023-03-23T17:15:12;13.45;;;3.70;;
23608;SDS011;11982;50.810;4.442;2023-03-23T17:17:38;17.50;;;3.78;;
23608;SDS011;11982;50.810;4.442;2023-03-23T17:20:04;21.20;;;4.22;;
23608;SDS011;11982;50.810;4.442;2023-03-23T17:22:31;9.20;;;3.10;;
23608;SDS011;11982;50.810;4.442;2023-03-23T17:24:57;12.38;;;3.78;;
23608;SDS011;11982;50.810;4.442;2023-03-23T17:27:23;14.57;;;3.70;;
23608;SDS011;11982;50.810;4.442;2023-03-23T17:29:49;15.80;;;3.88;;
23608;SDS011;11982;50.810;4.442;2023-03-23T17:32:15;17.77;;;4.03;;
23608;SDS011;11982;50.810;4.442;2023-03-23T17:34:41;15.85;;;3.88;;